sensor_id;sensor_type;location;lat;lon;timestamp;P1;durP1;ratioP1;P2;durP2;ratioP2
33367;SDS011;19724;51.114;13.906;2023-04-01T00:01:06;7.22;;;1.95;;
33367;SDS011;19724;51.114;13.906;2023-04-01T00:03:33;7.95;;;2.28;;
33367;SDS011;19724;51.114;13.906;2023-04-01T00:05:59;6.85;;;2.80;;
33367;SDS011;19724;51.114;13.906;2023-04-01T00:08:25;9.40;;;2.85;;
33367;SDS011;19724;51.114;13.906;2023-04-01T00:10:52;7.28;;;2.38;;
33367;SDS011;19724;51.114;13.906;2023-04-01T00:13:19;3.67;;;1.40;;
33367;SDS011;19724;51.114;13.906;2023-04-01T00:15:45;7.50;;;2.42;;
33367;SDS011;19724;51.114;13.906;2023-04-01T00:18:11;7.03;;;2.22;;
33367;SDS011;19724;51.114;13.906;2023-04-01T00:20:37;7.35;;;1.77;;
33367;SDS011;19724;51.114;13.906;2023-04-01T00:23:03;5.55;;;2.20;;
33367;SDS011;19724;51.114;13.906;2023-04-01T00:25:29;9.52;;;2.28;;
33367;SDS011;19724;51.114;13.906;2023-04-01T00:27:55;10.23;;;2.90;;
33367;SDS011;19724;51.114;13.906;2023-04-01T00:30:21;5.00;;;1.73;;
33367;SDS011;19724;51.114;13.906;2023-04-01T00:32:46;10.68;;;2.30;;
33367;SDS011;19724;51.114;13.906;2023-04-01T00:35:16;7.10;;;2.05;;
33367;SDS011;19724;51.114;13.906;2023-04-01T00:37:41;6.55;;;2.55;;
33367;SDS011;19724;51.114;13.906;2023-04-01T00:40:07;8.73;;;2.63;;
33367;SDS011;19724;51.114;13.906;2023-04-01T00:42:45;7.78;;;2.13;;
33367;SDS011;19724;51.114;13.906;2023-04-01T00:45:28;4.25;;;1.63;;
33367;SDS011;19724;51.114;13.906;2023-04-01T00:48:03;8.65;;;2.22;;
33367;SDS011;19724;51.114;13.906;2023-04-01T00:50:32;9.73;;;2.80;;
33367;SDS011;19724;51.114;13.906;2023-04-01T00:52:59;5.20;;;1.63;;
33367;SDS011;19724;51.114;13.906;2023-04-01T00:55:26;7.18;;;1.75;;
33367;SDS011;19724;51.114;13.906;2023-04-01T00:57:55;8.90;;;3.42;;
33367;SDS011;19724;51.114;13.906;2023-04-01T01:00:23;4.05;;;2.03;;
33367;SDS011;19724;51.114;13.906;2023-04-01T01:02:49;7.05;;;2.22;;
33367;SDS011;19724;51.114;13.906;2023-04-01T01:05:16;8.45;;;2.83;;
33367;SDS011;19724;51.114;13.906;2023-04-01T01:07:47;9.07;;;2.88;;
33367;SDS011;19724;51.114;13.906;2023-04-01T01:10:39;5.90;;;2.25;;
33367;SDS011;19724;51.114;13.906;2023-04-01T01:13:26;5.45;;;2.08;;
33367;SDS011;19724;51.114;13.906;2023-04-01T01:16:23;5.40;;;2.00;;
33367;SDS011;19724;51.114;13.906;2023-04-01T01:19:16;6.95;;;2.33;;
33367;SDS011;19724;51.114;13.906;2023-04-01T01:22:08;9.55;;;2.95;;
33367;SDS011;19724;51.114;13.906;2023-04-01T01:24:52;6.32;;;2.03;;
33367;SDS011;19724;51.114;13.906;2023-04-01T01:27:32;4.13;;;2.33;;
33367;SDS011;19724;51.114;13.906;2023-04-01T01:30:20;12.50;;;2.70;;
33367;SDS011;19724;51.114;13.906;2023-04-01T01:33:06;12.13;;;2.38;;
33367;SDS011;19724;51.114;13.906;2023-04-01T01:35:45;4.07;;;1.95;;
33367;SDS011;19724;51.114;13.906;2023-04-01T01:38:23;5.00;;;1.80;;
33367;SDS011;19724;51.114;13.906;2023-04-01T01:40:51;8.18;;;2.28;;
33367;SDS011;19724;51.114;13.906;2023-04-01T01:43:20;6.90;;;2.33;;
33367;SDS011;19724;51.114;13.906;2023-04-01T01:45:54;6.53;;;2.42;;
33367;SDS011;19724;51.114;13.906;2023-04-01T01:48:23;6.03;;;2.25;;
33367;SDS011;19724;51.114;13.906;2023-04-01T01:50:50;6.82;;;2.60;;
33367;SDS011;19724;51.114;13.906;2023-04-01T01:53:16;7.82;;;2.10;;
33367;SDS011;19724;51.114;13.906;2023-04-01T01:55:43;6.00;;;1.60;;
33367;SDS011;19724;51.114;13.906;2023-04-01T01:58:19;3.42;;;1.63;;
33367;SDS011;19724;51.114;13.906;2023-04-01T02:00:53;5.80;;;1.73;;
33367;SDS011;19724;51.114;13.906;2023-04-01T02:03:23;6.30;;;2.00;;
33367;SDS011;19724;51.114;13.906;2023-04-01T02:05:51;6.07;;;2.03;;
33367;SDS011;19724;51.114;13.906;2023-04-01T02:08:21;8.25;;;1.85;;
33367;SDS011;19724;51.114;13.906;2023-04-01T02:10:56;6.68;;;1.80;;
33367;SDS011;19724;51.114;13.906;2023-04-01T02:13:28;5.13;;;1.77;;
33367;SDS011;19724;51.114;13.906;2023-04-01T02:16:00;10.23;;;3.13;;
33367;SDS011;19724;51.114;13.906;2023-04-01T02:18:32;8.52;;;1.95;;
33367;SDS011;19724;51.114;13.906;2023-04-01T02:21:00;8.68;;;2.13;;
33367;SDS011;19724;51.114;13.906;2023-04-01T02:23:26;7.10;;;1.73;;
33367;SDS011;19724;51.114;13.906;2023-04-01T02:25:53;11.27;;;2.30;;
33367;SDS011;19724;51.114;13.906;2023-04-01T02:28:19;7.03;;;1.67;;
33367;SDS011;19724;51.114;13.906;2023-04-01T02:30:45;8.13;;;2.53;;
33367;SDS011;19724;51.114;13.906;2023-04-01T02:33:13;8.63;;;2.15;;
33367;SDS011;19724;51.114;13.906;2023-04-01T02:35:39;10.98;;;2.08;;
33367;SDS011;19724;51.114;13.906;2023-04-01T02:38:05;5.93;;;2.08;;
33367;SDS011;19724;51.114;13.906;2023-04-01T02:40:40;3.85;;;1.63;;
33367;SDS011;19724;51.114;13.906;2023-04-01T02:43:10;7.60;;;2.40;;
33367;SDS011;19724;51.114;13.906;2023-04-01T02:45:36;7.70;;;3.03;;
33367;SDS011;19724;51.114;13.906;2023-04-01T02:48:01;12.20;;;3.30;;
33367;SDS011;19724;51.114;13.906;2023-04-01T02:50:27;8.57;;;2.85;;
33367;SDS011;19724;51.114;13.906;2023-04-01T02:52:52;8.65;;;2.38;;
33367;SDS011;19724;51.114;13.906;2023-04-01T02:55:18;9.80;;;2.25;;
33367;SDS011;19724;51.114;13.906;2023-04-01T02:57:43;7.95;;;2.40;;
33367;SDS011;19724;51.114;13.906;2023-04-01T03:00:09;8.70;;;2.40;;
33367;SDS011;19724;51.114;13.906;2023-04-01T03:02:36;8.18;;;2.10;;
33367;SDS011;19724;51.114;13.906;2023-04-01T03:05:03;6.28;;;2.20;;
33367;SDS011;19724;51.114;13.906;2023-04-01T03:07:30;8.40;;;2.03;;
33367;SDS011;19724;51.114;13.906;2023-04-01T03:09:56;5.38;;;2.17;;
33367;SDS011;19724;51.114;13.906;2023-04-01T03:12:21;8.38;;;2.25;;
33367;SDS011;19724;51.114;13.906;2023-04-01T03:14:47;7.15;;;2.10;;
33367;SDS011;19724;51.114;13.906;2023-04-01T03:17:12;6.60;;;2.05;;
33367;SDS011;19724;51.114;13.906;2023-04-01T03:19:38;4.97;;;1.90;;
33367;SDS011;19724;51.114;13.906;2023-04-01T03:22:03;7.30;;;1.98;;
33367;SDS011;19724;51.114;13.906;2023-04-01T03:24:29;7.15;;;2.25;;
33367;SDS011;19724;51.114;13.906;2023-04-01T03:26:54;5.03;;;2.67;;
33367;SDS011;19724;51.114;13.906;2023-04-01T03:29:20;9.52;;;2.15;;
33367;SDS011;19724;51.114;13.906;2023-04-01T03:31:45;5.28;;;2.00;;
33367;SDS011;19724;51.114;13.906;2023-04-01T03:34:11;8.70;;;1.75;;
33367;SDS011;19724;51.114;13.906;2023-04-01T03:36:36;5.45;;;2.00;;
33367;SDS011;19724;51.114;13.906;2023-04-01T03:39:02;6.60;;;2.25;;
33367;SDS011;19724;51.114;13.906;2023-04-01T03:41:28;6.32;;;2.53;;
33367;SDS011;19724;51.114;13.906;2023-04-01T03:43:54;8.13;;;2.30;;
33367;SDS011;19724;51.114;13.906;2023-04-01T03:46:20;9.32;;;2.25;;
33367;SDS011;19724;51.114;13.906;2023-04-01T03:48:46;9.73;;;1.92;;
33367;SDS011;19724;51.114;13.906;2023-04-01T03:51:11;5.60;;;1.85;;
33367;SDS011;19724;51.114;13.906;2023-04-01T03:53:37;9.40;;;2.10;;
33367;SDS011;19724;51.114;13.906;2023-04-01T03:56:03;9.38;;;2.03;;
33367;SDS011;19724;51.114;13.906;2023-04-01T03:58:32;5.65;;;2.10;;
33367;SDS011;19724;51.114;13.906;2023-04-01T04:00:58;5.03;;;1.80;;
33367;SDS011;19724;51.114;13.906;2023-04-01T04:03:24;9.85;;;2.40;;
33367;SDS011;19724;51.114;13.906;2023-04-01T04:05:49;6.93;;;2.13;;
33367;SDS011;19724;51.114;13.906;2023-04-01T04:08:15;7.38;;;2.15;;
33367;SDS011;19724;51.114;13.906;2023-04-01T04:10:41;8.65;;;2.35;;
33367;SDS011;19724;51.114;13.906;2023-04-01T04:13:07;11.13;;;2.67;;
33367;SDS011;19724;51.114;13.906;2023-04-01T04:15:32;4.40;;;1.85;;
33367;SDS011;19724;51.114;13.906;2023-04-01T04:17:57;7.75;;;2.13;;
33367;SDS011;19724;51.114;13.906;2023-04-01T04:20:24;9.30;;;2.20;;
33367;SDS011;19724;51.114;13.906;2023-04-01T04:22:50;5.68;;;1.60;;
33367;SDS011;19724;51.114;13.906;2023-04-01T04:25:15;9.02;;;2.78;;
33367;SDS011;19724;51.114;13.906;2023-04-01T04:27:41;5.35;;;2.33;;
33367;SDS011;19724;51.114;13.906;2023-04-01T04:30:07;6.70;;;1.90;;
33367;SDS011;19724;51.114;13.906;2023-04-01T04:32:33;7.65;;;2.30;;
33367;SDS011;19724;51.114;13.906;2023-04-01T04:34:58;8.25;;;2.47;;
33367;SDS011;19724;51.114;13.906;2023-04-01T04:37:24;7.68;;;1.85;;
33367;SDS011;19724;51.114;13.906;2023-04-01T04:39:51;7.03;;;2.42;;
33367;SDS011;19724;51.114;13.906;2023-04-01T04:42:17;6.10;;;1.98;;
33367;SDS011;19724;51.114;13.906;2023-04-01T04:44:42;11.32;;;1.80;;
33367;SDS011;19724;51.114;13.906;2023-04-01T04:47:08;6.22;;;2.17;;
33367;SDS011;19724;51.114;13.906;2023-04-01T04:49:33;8.20;;;2.50;;
33367;SDS011;19724;51.114;13.906;2023-04-01T04:51:59;7.60;;;2.30;;
33367;SDS011;19724;51.114;13.906;2023-04-01T04:54:25;6.57;;;2.20;;
33367;SDS011;19724;51.114;13.906;2023-04-01T04:56:51;5.15;;;2.08;;
33367;SDS011;19724;51.114;13.906;2023-04-01T04:59:17;6.70;;;1.83;;
33367;SDS011;19724;51.114;13.906;2023-04-01T05:01:43;6.13;;;1.85;;
33367;SDS011;19724;51.114;13.906;2023-04-01T05:04:08;7.13;;;1.70;;
33367;SDS011;19724;51.114;13.906;2023-04-01T05:06:34;9.25;;;1.70;;
33367;SDS011;19724;51.114;13.906;2023-04-01T05:08:59;4.30;;;1.63;;
33367;SDS011;19724;51.114;13.906;2023-04-01T05:11:25;6.93;;;1.60;;
33367;SDS011;19724;51.114;13.906;2023-04-01T05:13:51;5.47;;;1.50;;
33367;SDS011;19724;51.114;13.906;2023-04-01T05:16:18;7.18;;;1.52;;
33367;SDS011;19724;51.114;13.906;2023-04-01T05:18:45;9.32;;;1.92;;
33367;SDS011;19724;51.114;13.906;2023-04-01T05:21:12;5.47;;;1.77;;
33367;SDS011;19724;51.114;13.906;2023-04-01T05:23:39;5.03;;;1.90;;
33367;SDS011;19724;51.114;13.906;2023-04-01T05:26:06;8.18;;;2.17;;
33367;SDS011;19724;51.114;13.906;2023-04-01T05:28:33;6.00;;;1.60;;
33367;SDS011;19724;51.114;13.906;2023-04-01T05:30:59;5.13;;;2.53;;
33367;SDS011;19724;51.114;13.906;2023-04-01T05:33:26;3.33;;;1.60;;
33367;SDS011;19724;51.114;13.906;2023-04-01T05:35:52;8.55;;;2.30;;
33367;SDS011;19724;51.114;13.906;2023-04-01T05:38:18;6.00;;;1.73;;
33367;SDS011;19724;51.114;13.906;2023-04-01T05:40:43;4.80;;;2.13;;
33367;SDS011;19724;51.114;13.906;2023-04-01T05:43:09;7.55;;;1.58;;
33367;SDS011;19724;51.114;13.906;2023-04-01T05:45:34;7.43;;;1.95;;
33367;SDS011;19724;51.114;13.906;2023-04-01T05:47:59;4.68;;;1.27;;
33367;SDS011;19724;51.114;13.906;2023-04-01T05:50:25;5.82;;;1.60;;
33367;SDS011;19724;51.114;13.906;2023-04-01T05:52:51;5.88;;;2.05;;
33367;SDS011;19724;51.114;13.906;2023-04-01T05:55:16;6.32;;;1.65;;
33367;SDS011;19724;51.114;13.906;2023-04-01T05:57:42;5.50;;;1.60;;
33367;SDS011;19724;51.114;13.906;2023-04-01T06:00:09;6.28;;;1.52;;
33367;SDS011;19724;51.114;13.906;2023-04-01T06:02:35;5.53;;;1.70;;
33367;SDS011;19724;51.114;13.906;2023-04-01T06:07:40;10.65;;;1.90;;
33367;SDS011;19724;51.114;13.906;2023-04-01T06:10:09;9.85;;;2.08;;
33367;SDS011;19724;51.114;13.906;2023-04-01T06:12:45;6.50;;;1.95;;
33367;SDS011;19724;51.114;13.906;2023-04-01T06:15:36;4.90;;;1.33;;
33367;SDS011;19724;51.114;13.906;2023-04-01T06:21:18;6.95;;;1.67;;
33367;SDS011;19724;51.114;13.906;2023-04-01T06:24:36;8.32;;;2.42;;
33367;SDS011;19724;51.114;13.906;2023-04-01T06:27:16;8.65;;;1.30;;
33367;SDS011;19724;51.114;13.906;2023-04-01T06:29:55;5.78;;;1.15;;
33367;SDS011;19724;51.114;13.906;2023-04-01T06:32:54;5.50;;;1.65;;
33367;SDS011;19724;51.114;13.906;2023-04-01T06:38:07;6.95;;;1.40;;
33367;SDS011;19724;51.114;13.906;2023-04-01T06:40:46;7.53;;;1.98;;
33367;SDS011;19724;51.114;13.906;2023-04-01T06:46:25;5.28;;;1.67;;
33367;SDS011;19724;51.114;13.906;2023-04-01T06:49:03;6.70;;;1.48;;
33367;SDS011;19724;51.114;13.906;2023-04-01T06:55:00;7.07;;;2.03;;
33367;SDS011;19724;51.114;13.906;2023-04-01T06:57:49;4.70;;;1.70;;
33367;SDS011;19724;51.114;13.906;2023-04-01T07:00:27;5.95;;;2.05;;
33367;SDS011;19724;51.114;13.906;2023-04-01T07:03:02;4.53;;;1.67;;
33367;SDS011;19724;51.114;13.906;2023-04-01T07:05:35;6.95;;;2.30;;
33367;SDS011;19724;51.114;13.906;2023-04-01T07:08:02;6.82;;;2.30;;
33367;SDS011;19724;51.114;13.906;2023-04-01T07:10:36;6.45;;;2.20;;
33367;SDS011;19724;51.114;13.906;2023-04-01T07:13:24;8.30;;;2.15;;
33367;SDS011;19724;51.114;13.906;2023-04-01T07:16:07;6.22;;;2.05;;
33367;SDS011;19724;51.114;13.906;2023-04-01T07:19:00;5.90;;;1.98;;
33367;SDS011;19724;51.114;13.906;2023-04-01T07:21:36;5.53;;;1.80;;
33367;SDS011;19724;51.114;13.906;2023-04-01T07:24:14;3.42;;;1.55;;
33367;SDS011;19724;51.114;13.906;2023-04-01T07:27:11;8.23;;;1.77;;
33367;SDS011;19724;51.114;13.906;2023-04-01T07:29:38;5.00;;;1.65;;
33367;SDS011;19724;51.114;13.906;2023-04-01T07:32:14;3.83;;;1.23;;
33367;SDS011;19724;51.114;13.906;2023-04-01T07:37:45;3.60;;;1.35;;
33367;SDS011;19724;51.114;13.906;2023-04-01T07:51:53;5.82;;;1.70;;
33367;SDS011;19724;51.114;13.906;2023-04-01T07:55:00;4.70;;;1.13;;
33367;SDS011;19724;51.114;13.906;2023-04-01T07:57:49;3.72;;;1.23;;
33367;SDS011;19724;51.114;13.906;2023-04-01T08:00:27;9.27;;;1.75;;
33367;SDS011;19724;51.114;13.906;2023-04-01T08:03:15;3.72;;;1.30;;
33367;SDS011;19724;51.114;13.906;2023-04-01T08:14:36;4.03;;;1.48;;
33367;SDS011;19724;51.114;13.906;2023-04-01T08:20:32;5.47;;;1.38;;
33367;SDS011;19724;51.114;13.906;2023-04-01T08:23:07;3.72;;;1.42;;
33367;SDS011;19724;51.114;13.906;2023-04-01T08:25:51;6.57;;;1.40;;
33367;SDS011;19724;51.114;13.906;2023-04-01T08:31:13;3.65;;;1.17;;
33367;SDS011;19724;51.114;13.906;2023-04-01T08:33:46;5.18;;;1.10;;
33367;SDS011;19724;51.114;13.906;2023-04-01T08:36:18;3.97;;;1.10;;
33367;SDS011;19724;51.114;13.906;2023-04-01T08:38:59;3.67;;;1.15;;
33367;SDS011;19724;51.114;13.906;2023-04-01T08:50:03;2.78;;;1.08;;
33367;SDS011;19724;51.114;13.906;2023-04-01T08:58:31;1.63;;;0.85;;
33367;SDS011;19724;51.114;13.906;2023-04-01T09:01:14;2.38;;;1.20;;
33367;SDS011;19724;51.114;13.906;2023-04-01T09:06:49;3.00;;;0.80;;
33367;SDS011;19724;51.114;13.906;2023-04-01T09:22:58;1.88;;;0.95;;
33367;SDS011;19724;51.114;13.906;2023-04-01T09:33:54;3.85;;;0.90;;
33367;SDS011;19724;51.114;13.906;2023-04-01T09:39:18;6.03;;;1.10;;
33367;SDS011;19724;51.114;13.906;2023-04-01T09:45:00;4.88;;;1.17;;
33367;SDS011;19724;51.114;13.906;2023-04-01T09:47:57;5.75;;;1.20;;
33367;SDS011;19724;51.114;13.906;2023-04-01T09:56:01;2.03;;;0.90;;
33367;SDS011;19724;51.114;13.906;2023-04-01T09:58:54;2.85;;;1.00;;
33367;SDS011;19724;51.114;13.906;2023-04-01T10:07:34;3.58;;;0.90;;
33367;SDS011;19724;51.114;13.906;2023-04-01T10:10:35;2.70;;;1.00;;
33367;SDS011;19724;51.114;13.906;2023-04-01T10:13:33;4.88;;;1.10;;
33367;SDS011;19724;51.114;13.906;2023-04-01T10:16:37;7.03;;;1.30;;
33367;SDS011;19724;51.114;13.906;2023-04-01T10:24:37;4.80;;;1.27;;
33367;SDS011;19724;51.114;13.906;2023-04-01T10:35:46;4.03;;;0.90;;
33367;SDS011;19724;51.114;13.906;2023-04-01T10:38:31;3.67;;;0.98;;
33367;SDS011;19724;51.114;13.906;2023-04-01T10:50:37;2.10;;;0.93;;
33367;SDS011;19724;51.114;13.906;2023-04-01T10:58:22;7.20;;;1.70;;
33367;SDS011;19724;51.114;13.906;2023-04-01T11:12:33;6.00;;;2.10;;
33367;SDS011;19724;51.114;13.906;2023-04-01T11:15:37;4.07;;;1.95;;
33367;SDS011;19724;51.114;13.906;2023-04-01T11:21:31;6.55;;;2.00;;
33367;SDS011;19724;51.114;13.906;2023-04-01T11:29:41;7.90;;;1.88;;
33367;SDS011;19724;51.114;13.906;2023-04-01T11:35:15;4.28;;;1.65;;
33367;SDS011;19724;51.114;13.906;2023-04-01T11:38:30;6.30;;;2.60;;
33367;SDS011;19724;51.114;13.906;2023-04-01T11:51:57;4.55;;;1.85;;
33367;SDS011;19724;51.114;13.906;2023-04-01T11:54:49;2.28;;;1.23;;
33367;SDS011;19724;51.114;13.906;2023-04-01T11:57:38;4.15;;;1.63;;
33367;SDS011;19724;51.114;13.906;2023-04-01T12:00:13;3.58;;;1.45;;
33367;SDS011;19724;51.114;13.906;2023-04-01T12:08:59;2.50;;;1.00;;
33367;SDS011;19724;51.114;13.906;2023-04-01T12:11:39;3.90;;;1.48;;
33367;SDS011;19724;51.114;13.906;2023-04-01T12:14:19;6.45;;;1.67;;
33367;SDS011;19724;51.114;13.906;2023-04-01T12:17:25;6.57;;;2.30;;
33367;SDS011;19724;51.114;13.906;2023-04-01T12:31:48;2.45;;;1.10;;
33367;SDS011;19724;51.114;13.906;2023-04-01T12:34:29;4.25;;;1.02;;
33367;SDS011;19724;51.114;13.906;2023-04-01T12:45:55;2.50;;;1.10;;
33367;SDS011;19724;51.114;13.906;2023-04-01T12:56:39;1.17;;;0.70;;
33367;SDS011;19724;51.114;13.906;2023-04-01T13:08:12;2.70;;;0.70;;
33367;SDS011;19724;51.114;13.906;2023-04-01T13:11:09;0.70;;;0.47;;
33367;SDS011;19724;51.114;13.906;2023-04-01T13:16:26;2.97;;;0.90;;
33367;SDS011;19724;51.114;13.906;2023-04-01T13:21:33;1.40;;;0.70;;
33367;SDS011;19724;51.114;13.906;2023-04-01T13:27:05;2.10;;;0.63;;
33367;SDS011;19724;51.114;13.906;2023-04-01T13:29:39;2.20;;;0.90;;
33367;SDS011;19724;51.114;13.906;2023-04-01T13:32:30;5.07;;;0.95;;
33367;SDS011;19724;51.114;13.906;2023-04-01T13:40:23;2.30;;;1.02;;
33367;SDS011;19724;51.114;13.906;2023-04-01T13:42:56;0.85;;;0.52;;
33367;SDS011;19724;51.114;13.906;2023-04-01T13:45:31;3.08;;;0.77;;
33367;SDS011;19724;51.114;13.906;2023-04-01T13:48:07;1.67;;;0.70;;
33367;SDS011;19724;51.114;13.906;2023-04-01T13:54:03;1.60;;;0.85;;
33367;SDS011;19724;51.114;13.906;2023-04-01T13:56:42;2.17;;;0.77;;
33367;SDS011;19724;51.114;13.906;2023-04-01T14:10:38;1.42;;;0.63;;
33367;SDS011;19724;51.114;13.906;2023-04-01T14:13:17;1.58;;;0.55;;
33367;SDS011;19724;51.114;13.906;2023-04-01T14:15:59;0.77;;;0.45;;
33367;SDS011;19724;51.114;13.906;2023-04-01T14:19:00;1.95;;;0.60;;
33367;SDS011;19724;51.114;13.906;2023-04-01T14:21:52;1.83;;;0.82;;
33367;SDS011;19724;51.114;13.906;2023-04-01T14:27:28;2.35;;;0.68;;
33367;SDS011;19724;51.114;13.906;2023-04-01T14:30:20;2.05;;;0.70;;
33367;SDS011;19724;51.114;13.906;2023-04-01T14:33:20;0.60;;;0.60;;
33367;SDS011;19724;51.114;13.906;2023-04-01T14:39:15;0.90;;;0.57;;
33367;SDS011;19724;51.114;13.906;2023-04-01T14:44:34;4.18;;;1.55;;
33367;SDS011;19724;51.114;13.906;2023-04-01T14:50:20;2.05;;;1.05;;
33367;SDS011;19724;51.114;13.906;2023-04-01T15:00:55;3.30;;;1.73;;
33367;SDS011;19724;51.114;13.906;2023-04-01T15:13:58;1.60;;;0.70;;
33367;SDS011;19724;51.114;13.906;2023-04-01T15:19:31;1.85;;;0.90;;
33367;SDS011;19724;51.114;13.906;2023-04-01T15:22:24;2.15;;;0.82;;
33367;SDS011;19724;51.114;13.906;2023-04-01T15:27:47;1.30;;;0.77;;
33367;SDS011;19724;51.114;13.906;2023-04-01T15:30:27;4.05;;;0.82;;
33367;SDS011;19724;51.114;13.906;2023-04-01T15:33:02;3.67;;;1.20;;
33367;SDS011;19724;51.114;13.906;2023-04-01T15:41:16;1.88;;;1.20;;
33367;SDS011;19724;51.114;13.906;2023-04-01T15:43:48;1.80;;;1.10;;
33367;SDS011;19724;51.114;13.906;2023-04-01T15:46:22;2.20;;;1.10;;
33367;SDS011;19724;51.114;13.906;2023-04-01T15:49:14;2.08;;;1.13;;
33367;SDS011;19724;51.114;13.906;2023-04-01T15:55:01;3.53;;;1.80;;
33367;SDS011;19724;51.114;13.906;2023-04-01T16:00:26;3.15;;;1.10;;
33367;SDS011;19724;51.114;13.906;2023-04-01T16:03:09;1.65;;;0.43;;
33367;SDS011;19724;51.114;13.906;2023-04-01T16:08:55;0.40;;;0.40;;
33367;SDS011;19724;51.114;13.906;2023-04-01T16:11:51;0.95;;;0.35;;
33367;SDS011;19724;51.114;13.906;2023-04-01T16:17:25;0.35;;;0.30;;
33367;SDS011;19724;51.114;13.906;2023-04-01T16:20:17;0.75;;;0.50;;
33367;SDS011;19724;51.114;13.906;2023-04-01T16:22:49;0.30;;;0.30;;
33367;SDS011;19724;51.114;13.906;2023-04-01T16:25:33;0.90;;;0.57;;
33367;SDS011;19724;51.114;13.906;2023-04-01T16:28:16;0.60;;;0.40;;
33367;SDS011;19724;51.114;13.906;2023-04-01T16:31:05;0.85;;;0.50;;
33367;SDS011;19724;51.114;13.906;2023-04-01T16:33:52;1.83;;;0.80;;
33367;SDS011;19724;51.114;13.906;2023-04-01T16:36:35;1.70;;;0.80;;
33367;SDS011;19724;51.114;13.906;2023-04-01T16:47:23;2.33;;;0.70;;
33367;SDS011;19724;51.114;13.906;2023-04-01T16:50:13;1.65;;;0.77;;
33367;SDS011;19724;51.114;13.906;2023-04-01T16:52:44;1.25;;;0.77;;
33367;SDS011;19724;51.114;13.906;2023-04-01T16:55:17;2.90;;;0.73;;
33367;SDS011;19724;51.114;13.906;2023-04-01T16:57:47;0.68;;;0.50;;
33367;SDS011;19724;51.114;13.906;2023-04-01T17:00:36;1.00;;;0.75;;
33367;SDS011;19724;51.114;13.906;2023-04-01T17:11:21;0.90;;;0.68;;
33367;SDS011;19724;51.114;13.906;2023-04-01T17:16:51;1.70;;;1.23;;
33367;SDS011;19724;51.114;13.906;2023-04-01T17:30:30;2.58;;;1.42;;
33367;SDS011;19724;51.114;13.906;2023-04-01T17:33:13;3.17;;;1.70;;
33367;SDS011;19724;51.114;13.906;2023-04-01T17:41:25;2.20;;;1.30;;
33367;SDS011;19724;51.114;13.906;2023-04-01T17:44:16;2.65;;;1.50;;
33367;SDS011;19724;51.114;13.906;2023-04-01T17:47:00;5.32;;;1.52;;
33367;SDS011;19724;51.114;13.906;2023-04-01T17:49:42;5.63;;;1.70;;
33367;SDS011;19724;51.114;13.906;2023-04-01T17:52:24;4.53;;;2.10;;
33367;SDS011;19724;51.114;13.906;2023-04-01T17:55:03;5.30;;;1.80;;
33367;SDS011;19724;51.114;13.906;2023-04-01T17:57:54;2.55;;;1.50;;
33367;SDS011;19724;51.114;13.906;2023-04-01T18:00:38;3.70;;;1.58;;
33367;SDS011;19724;51.114;13.906;2023-04-01T18:03:36;3.25;;;1.65;;
33367;SDS011;19724;51.114;13.906;2023-04-01T18:06:17;5.72;;;1.52;;
33367;SDS011;19724;51.114;13.906;2023-04-01T18:08:54;6.50;;;1.85;;
33367;SDS011;19724;51.114;13.906;2023-04-01T18:11:31;3.45;;;1.90;;
33367;SDS011;19724;51.114;13.906;2023-04-01T18:19:47;14.90;;;4.40;;
33367;SDS011;19724;51.114;13.906;2023-04-01T18:27:42;7.55;;;4.55;;
33367;SDS011;19724;51.114;13.906;2023-04-01T18:30:15;7.38;;;4.10;;
33367;SDS011;19724;51.114;13.906;2023-04-01T18:32:52;6.25;;;3.80;;
33367;SDS011;19724;51.114;13.906;2023-04-01T18:38:15;6.03;;;2.75;;
33367;SDS011;19724;51.114;13.906;2023-04-01T18:40:47;3.90;;;2.60;;
33367;SDS011;19724;51.114;13.906;2023-04-01T18:52:17;6.32;;;3.45;;
33367;SDS011;19724;51.114;13.906;2023-04-01T18:57:26;10.20;;;6.22;;
33367;SDS011;19724;51.114;13.906;2023-04-01T19:00:13;11.07;;;7.13;;
33367;SDS011;19724;51.114;13.906;2023-04-01T19:05:16;9.27;;;6.07;;
33367;SDS011;19724;51.114;13.906;2023-04-01T19:07:54;12.98;;;7.60;;
33367;SDS011;19724;51.114;13.906;2023-04-01T19:13:21;10.40;;;6.53;;
33367;SDS011;19724;51.114;13.906;2023-04-01T19:15:52;12.95;;;7.30;;
33367;SDS011;19724;51.114;13.906;2023-04-01T19:23:53;10.35;;;5.88;;
33367;SDS011;19724;51.114;13.906;2023-04-01T19:26:35;7.43;;;5.60;;
33367;SDS011;19724;51.114;13.906;2023-04-01T19:29:09;10.25;;;6.45;;
33367;SDS011;19724;51.114;13.906;2023-04-01T19:48:44;11.23;;;8.95;;
33367;SDS011;19724;51.114;13.906;2023-04-01T19:51:16;13.02;;;8.68;;
33367;SDS011;19724;51.114;13.906;2023-04-01T19:53:53;13.93;;;10.20;;
33367;SDS011;19724;51.114;13.906;2023-04-01T19:56:23;13.18;;;9.80;;
33367;SDS011;19724;51.114;13.906;2023-04-01T19:58:59;14.02;;;9.35;;
33367;SDS011;19724;51.114;13.906;2023-04-01T20:04:53;14.75;;;9.45;;
33367;SDS011;19724;51.114;13.906;2023-04-01T20:07:26;16.60;;;10.98;;
33367;SDS011;19724;51.114;13.906;2023-04-01T20:09:58;25.52;;;13.43;;
33367;SDS011;19724;51.114;13.906;2023-04-01T20:15:32;22.63;;;12.48;;
33367;SDS011;19724;51.114;13.906;2023-04-01T20:18:05;25.60;;;15.13;;
33367;SDS011;19724;51.114;13.906;2023-04-01T20:20:37;19.00;;;12.95;;
33367;SDS011;19724;51.114;13.906;2023-04-01T20:23:06;21.70;;;12.30;;
33367;SDS011;19724;51.114;13.906;2023-04-01T20:25:52;21.48;;;13.80;;
33367;SDS011;19724;51.114;13.906;2023-04-01T20:28:33;15.15;;;10.77;;
33367;SDS011;19724;51.114;13.906;2023-04-01T20:33:53;14.80;;;9.70;;
33367;SDS011;19724;51.114;13.906;2023-04-01T20:39:18;17.60;;;11.77;;
33367;SDS011;19724;51.114;13.906;2023-04-01T20:50:56;19.23;;;12.70;;
33367;SDS011;19724;51.114;13.906;2023-04-01T20:53:49;19.40;;;12.32;;
33367;SDS011;19724;51.114;13.906;2023-04-01T20:59:25;18.73;;;12.43;;
33367;SDS011;19724;51.114;13.906;2023-04-01T21:02:20;21.67;;;12.30;;
33367;SDS011;19724;51.114;13.906;2023-04-01T21:13:33;20.67;;;12.93;;
33367;SDS011;19724;51.114;13.906;2023-04-01T21:16:07;31.88;;;16.55;;
33367;SDS011;19724;51.114;13.906;2023-04-01T21:26:46;20.92;;;13.68;;
33367;SDS011;19724;51.114;13.906;2023-04-01T21:32:19;11.25;;;6.35;;
33367;SDS011;19724;51.114;13.906;2023-04-01T21:35:18;8.93;;;5.05;;
33367;SDS011;19724;51.114;13.906;2023-04-01T21:37:57;7.32;;;4.38;;
33367;SDS011;19724;51.114;13.906;2023-04-01T21:40:39;11.35;;;5.95;;
33367;SDS011;19724;51.114;13.906;2023-04-01T21:49:28;13.77;;;7.03;;
33367;SDS011;19724;51.114;13.906;2023-04-01T22:03:56;17.17;;;8.25;;
33367;SDS011;19724;51.114;13.906;2023-04-01T22:06:50;17.40;;;9.20;;
33367;SDS011;19724;51.114;13.906;2023-04-01T22:09:38;15.70;;;8.68;;
33367;SDS011;19724;51.114;13.906;2023-04-01T22:15:20;22.60;;;10.48;;
33367;SDS011;19724;51.114;13.906;2023-04-01T22:18:13;18.27;;;9.82;;
33367;SDS011;19724;51.114;13.906;2023-04-01T22:20:53;14.88;;;8.32;;
33367;SDS011;19724;51.114;13.906;2023-04-01T22:23:57;15.13;;;8.00;;
33367;SDS011;19724;51.114;13.906;2023-04-01T22:29:20;15.00;;;8.93;;
33367;SDS011;19724;51.114;13.906;2023-04-01T22:32:05;13.13;;;8.27;;
33367;SDS011;19724;51.114;13.906;2023-04-01T22:34:38;17.90;;;9.30;;
33367;SDS011;19724;51.114;13.906;2023-04-01T22:40:06;19.30;;;11.23;;
33367;SDS011;19724;51.114;13.906;2023-04-01T22:42:46;21.67;;;11.32;;
33367;SDS011;19724;51.114;13.906;2023-04-01T22:45:40;19.85;;;11.32;;
33367;SDS011;19724;51.114;13.906;2023-04-01T22:48:30;24.23;;;12.68;;